Time;durP1;ratioP1;P1;durP2;ratioP2;P2;SDS_P1;SDS_P2;PMS_P1;PMS_P2;Temp;Humidity;BMP_temperature;BMP_pressure;BME280_temperature;BME280_humidity;BME280_pressure;Samples;Min_cycle;Max_cycle;Signal;HPM_P1;HPM_P2
2022/03/19 00:01:03;;;;;;;75.47;33.97;;;;;;;2.56;84.38;102697.31;4424292;32;20105;-76
2022/03/19 00:03:30;;;;;;;75.43;35.30;;;;;;;2.59;84.46;102692.28;4424128;32;20157;-76
2022/03/19 00:05:58;;;;;;;78.22;33.28;;;;;;;2.66;84.05;102685.72;4424109;32;20420;-76
2022/03/19 00:08:25;;;;;;;85.05;36.72;;;;;;;2.68;84.20;102681.47;4409904;32;20155;-76
2022/03/19 00:10:52;;;;;;;85.95;38.55;;;;;;;2.68;84.19;102686.69;4409711;32;20089;-76
2022/03/19 00:13:22;;;;;;;88.22;40.03;;;;;;;2.71;83.85;102685.16;4424415;32;20077;-76
2022/03/19 00:15:50;;;;;;;86.30;36.67;;;;;;;2.70;84.48;102680.78;4424101;32;20089;-76
2022/03/19 00:18:18;;;;;;;93.72;37.70;;;;;;;2.69;84.72;102675.50;4409993;32;20120;-76
2022/03/19 00:20:45;;;;;;;86.22;36.72;;;;;;;2.69;85.23;102684.19;4424086;32;20238;-76
2022/03/19 00:23:14;;;;;;;71.70;33.60;;;;;;;2.71;85.65;102677.34;4423970;32;20424;-76
2022/03/19 00:25:42;;;;;;;69.53;33.17;;;;;;;2.73;84.64;102685.25;4424192;32;20090;-76
2022/03/19 00:28:09;;;;;;;88.10;34.67;;;;;;;2.81;83.70;102682.28;4409762;32;20109;-76
2022/03/19 00:30:36;;;;;;;71.90;34.47;;;;;;;2.76;84.84;102675.03;4409685;32;20553;-76
2022/03/19 00:33:04;;;;;;;81.40;33.33;;;;;;;2.74;85.58;102669.72;4424166;32;20102;-76
2022/03/19 00:35:32;;;;;;;75.47;33.40;;;;;;;2.74;85.31;102674.91;4409530;32;20422;-76
2022/03/19 00:38:01;;;;;;;84.62;34.80;;;;;;;2.79;84.08;102673.50;4409881;32;20113;-76
2022/03/19 00:40:28;;;;;;;70.57;32.65;;;;;;;2.77;84.06;102672.50;4423855;32;20176;-76
2022/03/19 00:42:56;;;;;;;73.22;34.05;;;;;;;2.79;83.06;102668.28;4423902;32;20119;-76
2022/03/19 00:45:23;;;;;;;77.00;33.28;;;;;;;2.78;84.76;102673.38;4423958;32;20429;-76
2022/03/19 00:47:50;;;;;;;76.35;33.75;;;;;;;2.69;85.64;102665.97;4423802;32;20116;-76
2022/03/19 00:50:18;;;;;;;74.20;34.83;;;;;;;2.73;85.51;102672.25;4396808;32;20147;-76
2022/03/19 00:52:45;;;;;;;71.90;32.97;;;;;;;2.72;86.02;102671.34;4409682;32;20147;-76
2022/03/19 00:55:13;;;;;;;79.18;33.63;;;;;;;2.67;85.76;102672.78;4409631;32;20102;-76
2022/03/19 00:57:42;;;;;;;71.00;31.83;;;;;;;2.70;86.02;102664.25;4423745;32;20101;-76
2022/03/19 01:00:11;;;;;;;77.37;33.15;;;;;;;2.68;85.60;102658.06;4423902;32;20131;-76
2022/03/19 01:02:41;;;;;;;74.70;33.65;;;;;;;2.68;86.00;102658.94;4423962;32;20128;-76
2022/03/19 01:05:10;;;;;;;78.78;35.13;;;;;;;2.67;86.30;102659.75;4409762;32;20097;-76
2022/03/19 01:07:44;;;;;;;77.25;35.60;;;;;;;2.66;85.54;102652.78;4423709;32;20737;-76
2022/03/19 01:10:14;;;;;;;78.65;35.08;;;;;;;2.65;85.17;102653.59;4423450;32;20231;-76
2022/03/19 01:12:42;;;;;;;78.15;34.67;;;;;;;2.61;86.26;102649.00;4423717;32;20536;-76
2022/03/19 01:15:10;;;;;;;72.75;34.63;;;;;;;2.58;86.38;102648.81;4423845;32;20090;-76
2022/03/19 01:17:37;;;;;;;84.80;35.53;;;;;;;2.58;86.38;102649.75;4423746;32;20932;-76
2022/03/19 01:20:06;;;;;;;79.85;37.33;;;;;;;2.56;86.43;102643.53;4423623;32;20097;-76
2022/03/19 01:22:33;;;;;;;81.28;34.13;;;;;;;2.71;85.67;102643.50;4423655;32;20090;-76
2022/03/19 01:25:04;;;;;;;89.62;37.63;;;;;;;2.71;86.02;102642.63;4423565;32;20090;-76
2022/03/19 01:27:32;;;;;;;80.82;35.17;;;;;;;2.74;85.81;102648.88;4423708;32;20159;-76
2022/03/19 01:30:00;;;;;;;76.80;34.13;;;;;;;2.62;86.39;102646.50;4409255;32;20117;-76
2022/03/19 01:32:28;;;;;;;76.10;35.17;;;;;;;2.64;85.92;102638.75;4423666;32;20089;-76
2022/03/19 01:34:55;;;;;;;79.30;35.20;;;;;;;2.70;86.18;102644.31;4423558;32;20195;-76
2022/03/19 01:37:23;;;;;;;84.05;35.17;;;;;;;2.69;86.79;102639.03;4423609;32;20097;-76
2022/03/19 01:39:55;;;;;;;75.28;33.85;;;;;;;2.68;86.63;102627.72;4409378;32;20113;-76
2022/03/19 01:42:30;;;;;;;76.40;33.90;;;;;;;2.63;87.02;102624.84;4423610;32;20112;-76
2022/03/19 01:44:59;;;;;;;80.22;34.67;;;;;;;2.66;85.94;102624.13;4423584;32;20133;-76
2022/03/19 01:47:28;;;;;;;82.88;35.42;;;;;;;2.62;85.68;102616.97;4423496;32;20465;-76
2022/03/19 01:49:57;;;;;;;86.53;35.92;;;;;;;2.53;86.85;102622.53;4423329;32;20152;-76
2022/03/19 01:52:31;;;;;;;93.18;36.75;;;;;;;2.46;87.41;102614.31;4423425;32;20444;-76
2022/03/19 01:54:59;;;;;;;82.47;36.72;;;;;;;2.39;87.48;102611.34;4423574;32;20097;-76
2022/03/19 01:57:32;;;;;;;82.62;35.72;;;;;;;2.33;87.83;102613.63;4423412;32;20155;-76
2022/03/19 02:00:01;;;;;;;84.43;37.08;;;;;;;2.30;87.92;102612.56;4423475;32;20536;-76
2022/03/19 02:02:38;;;;;;;99.25;39.47;;;;;;;2.21;89.00;102612.91;4410420;32;20109;-76
2022/03/19 02:05:10;;;;;;;87.80;36.58;;;;;;;2.13;89.07;102606.37;4423458;32;20508;-76
2022/03/19 02:07:37;;;;;;;94.97;37.35;;;;;;;2.10;89.10;102606.19;4423437;32;20093;-76
2022/03/19 02:10:05;;;;;;;81.68;37.30;;;;;;;2.11;88.71;102605.38;4423297;32;20277;-76
2022/03/19 02:12:32;;;;;;;76.35;33.75;;;;;;;2.07;88.96;102603.41;4409156;32;20105;-76
2022/03/19 02:14:59;;;;;;;76.55;32.53;;;;;;;2.02;89.37;102599.66;4409035;32;20510;-76
2022/03/19 02:17:26;;;;;;;72.72;33.22;;;;;;;2.02;89.37;102599.66;4423359;32;20144;-76
2022/03/19 02:19:55;;;;;;;81.80;34.92;;;;;;;2.03;89.04;102591.94;4409074;32;20571;-76
2022/03/19 02:22:25;;;;;;;69.78;32.70;;;;;;;1.94;89.98;102593.09;4422467;32;20141;-76
2022/03/19 02:27:40;;;;;;;77.70;34.35;;;;;;;1.78;90.42;102589.59;4423074;32;20086;-76
2022/03/19 02:30:10;;;;;;;80.30;33.00;;;;;;;1.65;91.13;102587.97;4423296;32;20105;-76
2022/03/19 02:32:49;;;;;;;73.25;33.22;;;;;;;1.59;91.17;102590.22;4423341;32;20093;-76
2022/03/19 02:35:18;;;;;;;69.60;30.37;;;;;;;1.50;91.58;102594.84;4423369;32;20448;-76
2022/03/19 02:37:48;;;;;;;73.80;30.37;;;;;;;1.39;91.89;102591.59;4423113;32;20566;-76
2022/03/19 02:40:18;;;;;;;80.90;32.55;;;;;;;1.25;92.74;102592.47;4423147;32;20105;-76
2022/03/19 02:42:51;;;;;;;66.62;29.25;;;;;;;1.16;93.38;102590.19;4408853;32;20119;-76
2022/03/19 02:45:23;;;;;;;69.68;30.10;;;;;;;1.12;93.16;102592.50;4423113;32;20078;-76
2022/03/19 02:47:57;;;;;;;68.95;30.37;;;;;;;1.07;93.07;102588.75;4423319;32;20115;-76
2022/03/19 02:50:30;;;;;;;71.62;29.98;;;;;;;0.92;93.96;102583.50;4396576;32;20148;-76
2022/03/19 02:52:58;;;;;;;68.10;29.80;;;;;;;0.77;94.48;102583.41;4423052;32;20145;-76
2022/03/19 02:55:34;;;;;;;81.65;32.15;;;;;;;0.77;94.26;102582.50;4422946;32;20458;-76
2022/03/19 02:58:03;;;;;;;64.10;29.23;;;;;;;0.70;94.08;102578.63;4422971;32;20116;-76
2022/03/19 03:00:30;;;;;;;64.28;27.58;;;;;;;0.59;95.34;102577.06;4422853;32;20138;-76
2022/03/19 03:02:58;;;;;;;61.50;27.30;;;;;;;0.48;96.26;102589.34;4422909;32;20135;-76
2022/03/19 03:05:26;;;;;;;64.90;28.52;;;;;;;0.45;96.40;102579.66;4422768;32;20508;-76
2022/03/19 03:07:53;;;;;;;71.45;28.83;;;;;;;0.41;96.62;102582.84;4422964;32;20129;-76
2022/03/19 03:10:20;;;;;;;61.83;28.67;;;;;;;0.37;96.69;102575.69;4408447;32;20097;-76
2022/03/19 03:12:47;;;;;;;57.50;27.95;;;;;;;0.35;97.15;102577.25;4422798;32;20164;-76
2022/03/19 03:15:14;;;;;;;60.72;26.00;;;;;;;0.33;97.37;102578.00;4422647;32;20516;-76
2022/03/19 03:17:42;;;;;;;64.75;28.45;;;;;;;0.36;97.76;102586.88;4422993;32;20119;-76
2022/03/19 03:20:10;;;;;;;65.28;28.45;;;;;;;0.50;97.18;102589.47;4422848;32;20117;-76
2022/03/19 03:22:39;;;;;;;53.63;25.37;;;;;;;0.57;96.58;102578.69;4422621;32;20442;-76
2022/03/19 03:25:07;;;;;;;60.97;27.15;;;;;;;0.63;96.61;102582.53;4422511;32;20094;-76
2022/03/19 03:27:34;;;;;;;55.75;24.52;;;;;;;0.71;96.18;102577.84;4422439;32;20497;-76
2022/03/19 03:30:01;;;;;;;54.20;26.23;;;;;;;0.75;95.58;102579.84;4395612;32;20140;-76
2022/03/19 03:32:28;;;;;;;54.95;25.50;;;;;;;0.75;95.67;102579.84;4422655;32;20401;-76
2022/03/19 03:34:56;;;;;;;56.78;25.08;;;;;;;0.76;95.66;102579.03;4424513;32;20097;-76
2022/03/19 03:37:24;;;;;;;59.10;24.95;;;;;;;0.97;94.30;102581.19;4424404;32;20132;-76
2022/03/19 03:39:51;;;;;;;58.87;25.20;;;;;;;1.09;92.80;102577.62;4424450;32;20113;-76
2022/03/19 03:42:18;;;;;;;59.47;25.60;;;;;;;1.12;92.66;102572.63;4424321;32;20093;-76
2022/03/19 03:44:45;;;;;;;56.20;24.83;;;;;;;1.10;92.79;102571.66;4424384;32;20159;-76
2022/03/19 03:47:13;;;;;;;54.70;24.90;;;;;;;1.11;92.66;102569.94;4410130;32;20174;-76
2022/03/19 03:49:40;;;;;;;54.80;25.15;;;;;;;1.10;92.57;102569.06;4424298;32;20110;-76
2022/03/19 03:52:07;;;;;;;56.75;25.65;;;;;;;1.14;92.00;102564.94;4424275;32;20403;-76
2022/03/19 03:54:34;;;;;;;53.65;24.45;;;;;;;1.09;92.75;102572.44;4424377;32;20701;-76
2022/03/19 03:57:02;;;;;;;58.00;24.67;;;;;;;1.03;93.31;102576.38;4424336;32;20167;-76
2022/03/19 03:59:30;;;;;;;61.50;25.17;;;;;;;1.06;93.04;102563.56;4424423;32;20174;-76
2022/03/19 04:01:58;;;;;;;57.97;27.37;;;;;;;1.13;92.28;102569.25;4409903;32;20077;-76
2022/03/19 04:04:26;;;;;;;61.17;25.70;;;;;;;1.10;93.04;102571.66;4424111;32;20153;-76
2022/03/19 04:06:53;;;;;;;62.58;28.23;;;;;;;1.06;93.58;102560.97;4424233;32;20136;-76
2022/03/19 04:09:21;;;;;;;64.32;26.62;;;;;;;1.00;93.66;102569.28;4424195;32;20136;-76
2022/03/19 04:11:48;;;;;;;71.95;30.08;;;;;;;1.09;93.05;102571.53;4409960;32;20719;-76
2022/03/19 04:14:16;;;;;;;80.87;32.25;;;;;;;1.15;92.02;102566.72;4424235;32;20163;-76
2022/03/19 04:16:43;;;;;;;71.82;31.35;;;;;;;1.08;92.68;102556.78;4424188;32;20540;-76
2022/03/19 04:19:10;;;;;;;83.47;33.53;;;;;;;1.01;93.24;102558.09;4407265;32;76826;-75
2022/03/19 04:21:42;;;;;;;83.65;32.42;;;;;;;0.95;93.32;102553.44;4424107;32;20139;-76
2022/03/19 04:24:10;;;;;;;82.85;34.13;;;;;;;0.96;93.55;102556.91;4424023;32;20589;-76
2022/03/19 04:26:37;;;;;;;85.65;36.08;;;;;;;0.97;93.37;102563.00;4397078;32;20105;-76
2022/03/19 04:29:05;;;;;;;86.70;35.00;;;;;;;0.97;93.53;102557.81;4424151;32;20112;-76
2022/03/19 04:31:32;;;;;;;88.90;33.50;;;;;;;0.94;94.17;102553.31;4409821;32;20136;-76
2022/03/19 04:34:00;;;;;;;87.95;34.13;;;;;;;0.94;94.38;102550.72;4424016;32;20090;-76
2022/03/19 04:36:30;;;;;;;92.53;35.20;;;;;;;0.92;94.59;102558.44;4409711;32;20469;-76
2022/03/19 04:38:58;;;;;;;94.18;37.97;;;;;;;0.95;94.65;102558.63;4409999;32;20513;-76
2022/03/19 04:41:26;;;;;;;88.20;34.58;;;;;;;0.99;94.29;102558.78;4423977;32;20085;-76
2022/03/19 04:43:54;;;;;;;91.32;35.15;;;;;;;1.01;94.39;102562.37;4423965;32;20097;-76
2022/03/19 04:46:22;;;;;;;87.37;34.42;;;;;;;1.07;94.60;102560.19;4423583;32;20426;-76
2022/03/19 04:48:50;;;;;;;85.18;35.00;;;;;;;1.12;94.02;102563.94;4423875;32;20489;-76
2022/03/19 04:51:19;;;;;;;83.90;35.83;;;;;;;1.13;93.61;102568.31;4423807;32;20532;-76
2022/03/19 04:53:50;;;;;;;94.97;35.53;;;;;;;1.16;93.95;102560.72;4423800;32;20462;-76
2022/03/19 04:56:19;;;;;;;88.45;36.78;;;;;;;1.17;94.27;102566.03;4424000;32;20115;-76
2022/03/19 04:58:48;;;;;;;89.50;36.00;;;;;;;1.20;94.63;102570.50;4423979;32;20118;-76
2022/03/19 05:01:17;;;;;;;92.35;36.83;;;;;;;1.23;94.59;102569.78;4409842;32;20150;-76
2022/03/19 05:03:44;;;;;;;97.65;37.22;;;;;;;1.33;93.68;102575.63;4423738;32;20150;-76
2022/03/19 05:06:11;;;;;;;101.50;36.67;;;;;;;1.35;93.34;102579.22;4397082;32;20149;-76
2022/03/19 05:08:39;;;;;;;89.37;35.25;;;;;;;1.36;93.23;102578.41;4423818;32;20113;-76
2022/03/19 05:11:17;;;;;;;80.10;34.45;;;;;;;1.41;93.00;102576.09;4423836;32;20119;-76
2022/03/19 05:13:48;;;;;;;90.87;35.78;;;;;;;1.46;92.46;102574.69;4399642;32;20424;-76
2022/03/19 05:16:15;;;;;;;92.30;38.72;;;;;;;1.52;92.31;102568.94;4423873;32;20159;-76
2022/03/19 05:18:43;;;;;;;106.68;38.45;;;;;;;1.57;91.73;102567.53;4423784;32;20514;-76
2022/03/19 05:21:13;;;;;;;96.93;40.15;;;;;;;1.60;91.39;102570.31;4397314;32;20139;-76
2022/03/19 05:23:43;;;;;;;100.22;38.60;;;;;;;1.62;91.72;102571.28;4409083;32;20528;-76
2022/03/19 05:26:11;;;;;;;89.45;36.53;;;;;;;1.66;91.39;102573.25;4423640;32;20187;-76
2022/03/19 05:28:39;;;;;;;92.47;38.28;;;;;;;1.82;90.13;102581.16;4409492;32;20177;-76
2022/03/19 05:31:27;;;;;;;87.88;36.30;;;;;;;1.89;89.64;102577.22;4409180;32;20112;-76
2022/03/19 05:36:41;;;;;;;90.68;36.55;;;;;;;1.85;90.31;102572.66;4423617;32;20151;-76
2022/03/19 05:39:08;;;;;;;87.93;37.33;;;;;;;2.00;90.29;102572.66;4423738;32;20105;-76
2022/03/19 05:41:35;;;;;;;84.18;36.30;;;;;;;1.99;89.30;102578.66;4423553;32;20098;-76
2022/03/19 05:44:03;;;;;;;84.32;37.95;;;;;;;2.04;89.38;102574.62;4409296;32;20466;-76
2022/03/19 05:46:30;;;;;;;96.72;39.42;;;;;;;2.16;88.70;102580.53;4409131;32;20121;-76
2022/03/19 05:48:57;;;;;;;103.05;40.50;;;;;;;2.20;87.96;102573.81;4423440;32;20218;-76
2022/03/19 05:51:25;;;;;;;104.07;40.70;;;;;;;2.27;87.09;102578.56;4423566;32;20155;-76
2022/03/19 05:53:52;;;;;;;87.47;38.30;;;;;;;2.27;85.61;102582.03;4423474;32;20155;-76
2022/03/19 05:56:19;;;;;;;85.65;36.70;;;;;;;2.34;85.11;102581.59;4422565;32;20097;-76
2022/03/19 05:58:47;;;;;;;90.20;37.47;;;;;;;2.53;83.06;102580.00;4423294;32;20105;-76
2022/03/19 06:01:14;;;;;;;85.68;35.25;;;;;;;2.62;82.92;102575.34;4409231;32;20082;-76
2022/03/19 06:03:42;;;;;;;73.93;33.85;;;;;;;2.68;82.85;102580.84;4423460;32;20147;-76
2022/03/19 06:06:09;;;;;;;81.82;35.28;;;;;;;2.69;82.00;102579.19;4423719;32;20527;-76
2022/03/19 06:08:36;;;;;;;78.55;34.22;;;;;;;2.78;80.59;102579.66;4423480;32;20131;-76
2022/03/19 06:11:04;;;;;;;75.32;32.90;;;;;;;2.89;79.82;102586.34;4409282;32;20081;-76
2022/03/19 06:13:31;;;;;;;73.60;33.80;;;;;;;2.94;79.26;102590.13;4409368;32;20124;-76
2022/03/19 06:15:58;;;;;;;72.20;33.92;;;;;;;2.98;78.18;102585.97;4423592;32;20089;-76
2022/03/19 06:18:26;;;;;;;67.85;30.80;;;;;;;3.02;77.54;102582.72;4423488;32;20488;-76
2022/03/19 06:20:53;;;;;;;72.20;30.35;;;;;;;3.09;77.05;102582.22;4423649;32;20167;-76
2022/03/19 06:23:20;;;;;;;64.68;30.92;;;;;;;3.18;76.29;102582.75;4423504;32;20179;-76
2022/03/19 06:25:49;;;;;;;73.72;30.73;;;;;;;3.31;75.22;102584.25;4409147;32;20144;-76
2022/03/19 06:28:17;;;;;;;71.45;31.83;;;;;;;3.26;75.33;102578.81;4423396;32;20097;-76
2022/03/19 06:30:44;;;;;;;69.25;30.27;;;;;;;3.32;75.33;102586.03;4423186;32;20115;-76
2022/03/19 06:33:16;;;;;;;63.60;29.40;;;;;;;3.50;73.99;102593.97;4423194;32;20426;-76
2022/03/19 06:38:36;;;;;;;70.65;30.30;;;;;;;3.51;73.52;102594.03;4411818;32;20528;-76
2022/03/19 06:41:03;;;;;;;62.45;28.95;;;;;;;3.66;72.27;102590.44;4423101;32;20438;-76
2022/03/19 06:43:31;;;;;;;70.18;29.70;;;;;;;3.68;71.38;102591.41;4423058;32;20120;-76
2022/03/19 06:45:58;;;;;;;66.87;29.23;;;;;;;3.81;71.00;102594.69;4423216;32;20093;-76
2022/03/19 06:48:26;;;;;;;65.50;29.45;;;;;;;3.83;70.78;102593.09;4423000;32;20102;-76
2022/03/19 06:50:54;;;;;;;69.85;29.80;;;;;;;3.90;70.60;102593.41;4422262;32;20467;-76
2022/03/19 06:53:23;;;;;;;72.15;29.83;;;;;;;3.92;71.32;102591.75;4422947;32;20093;-76
2022/03/19 06:55:51;;;;;;;69.15;30.45;;;;;;;4.10;71.17;102600.53;4423142;32;20089;-76
2022/03/19 06:58:20;;;;;;;57.83;26.50;;;;;;;4.17;70.34;102599.09;4423007;32;20128;-76
2022/03/19 07:00:49;;;;;;;64.80;28.75;;;;;;;4.35;69.74;102592.19;4423024;32;20093;-76
2022/03/19 07:03:17;;;;;;;56.13;26.02;;;;;;;4.52;68.70;102586.06;4422777;32;20561;-76
2022/03/19 07:05:45;;;;;;;57.28;26.62;;;;;;;4.60;66.93;102591.66;4408783;32;20491;-76
2022/03/19 07:08:12;;;;;;;61.78;27.27;;;;;;;4.77;66.63;102592.44;4422349;32;20105;-76
2022/03/19 07:10:40;;;;;;;52.08;23.90;;;;;;;4.90;64.90;102594.81;4408536;32;20082;-76
2022/03/19 07:13:07;;;;;;;51.58;24.75;;;;;;;5.26;63.78;102587.78;4422809;32;20151;-76
2022/03/19 07:15:34;;;;;;;52.30;22.83;;;;;;;5.57;60.79;102596.97;4422689;32;20139;-76
2022/03/19 07:18:02;;;;;;;56.28;23.80;;;;;;;5.62;59.17;102590.25;4422750;32;20100;-76
2022/03/19 07:20:30;;;;;;;50.72;22.90;;;;;;;5.62;59.21;102595.47;4422715;32;20142;-76
2022/03/19 07:23:06;;;;;;;47.42;23.70;;;;;;;5.58;59.00;102597.84;4408292;32;20428;-76
2022/03/19 07:25:35;;;;;;;53.72;23.80;;;;;;;5.55;59.08;102596.03;4408626;32;20522;-76
2022/03/19 07:28:04;;;;;;;57.45;23.60;;;;;;;5.51;59.17;102594.06;4422511;32;20127;-76
2022/03/19 07:30:32;;;;;;;46.95;22.60;;;;;;;5.54;59.80;102601.16;4422559;32;20488;-76
2022/03/19 07:33:00;;;;;;;45.28;23.05;;;;;;;5.55;59.57;102595.09;4422594;32;20089;-76
2022/03/19 07:35:28;;;;;;;48.50;23.48;;;;;;;5.70;58.39;102601.03;4422435;32;20094;-76
2022/03/19 07:37:57;;;;;;;46.80;21.62;;;;;;;5.77;59.30;102594.34;4422344;32;20101;-76
2022/03/19 07:43:13;;;;;;;46.30;22.08;;;;;;;5.93;56.77;102602.03;4410634;32;20086;-76
2022/03/19 07:45:43;;;;;;;48.78;23.70;;;;;;;5.90;57.92;102604.47;4422358;32;20601;-76
2022/03/19 07:48:10;;;;;;;50.80;23.33;;;;;;;5.85;57.12;102598.19;4408062;32;20100;-76
2022/03/19 07:50:52;;;;;;;49.63;22.80;;;;;;;5.94;57.05;102601.22;4422190;32;20518;-76
2022/03/19 07:53:19;;;;;;;58.08;23.23;;;;;;;5.89;57.44;102602.69;4422125;32;20105;-76
2022/03/19 07:55:47;;;;;;;55.63;23.30;;;;;;;5.92;56.52;102603.75;4422307;32;20101;-76
2022/03/19 07:58:17;;;;;;;44.40;22.08;;;;;;;5.80;56.24;102610.19;4422018;32;20519;-76
2022/03/19 08:00:45;;;;;;;48.38;21.25;;;;;;;6.02;55.48;102610.28;4422019;32;20111;-76
2022/03/19 08:03:13;;;;;;;41.92;21.55;;;;;;;6.03;55.25;102606.84;4422137;32;20156;-76
2022/03/19 08:05:43;;;;;;;51.28;22.35;;;;;;;6.09;55.51;102617.56;4407699;32;20129;-76
2022/03/19 08:08:12;;;;;;;47.85;22.45;;;;;;;6.27;54.81;102608.69;4421878;32;20174;-76
2022/03/19 08:10:40;;;;;;;48.80;23.55;;;;;;;6.33;54.71;102608.97;4407929;32;20208;-76
2022/03/19 08:13:09;;;;;;;42.90;22.23;;;;;;;6.35;55.21;102612.53;4407480;32;20163;-76
2022/03/19 08:15:39;;;;;;;44.40;21.42;;;;;;;6.47;54.74;102615.66;4421982;32;20190;-76
2022/03/19 08:18:09;;;;;;;40.67;21.35;;;;;;;6.61;54.01;102606.63;4407698;32;20121;-76
2022/03/19 08:20:38;;;;;;;46.13;22.13;;;;;;;6.69;53.98;102606.94;4422890;32;20392;-76
2022/03/19 08:23:05;;;;;;;42.50;21.20;;;;;;;6.78;53.92;102612.50;4423891;32;20089;-76
2022/03/19 08:25:33;;;;;;;41.90;22.00;;;;;;;6.89;54.09;102608.59;4424043;32;20184;-76
2022/03/19 08:28:01;;;;;;;45.58;20.85;;;;;;;7.17;53.20;102601.78;4424032;32;20101;-76
2022/03/19 08:30:32;;;;;;;39.88;20.65;;;;;;;7.36;52.49;102606.00;4424074;32;20081;-76
2022/03/19 08:33:00;;;;;;;41.20;21.95;;;;;;;7.36;51.36;102603.37;4409409;32;20196;-76
2022/03/19 08:35:27;;;;;;;40.63;19.85;;;;;;;7.50;51.81;102610.00;4423841;32;20093;-76
2022/03/19 08:40:41;;;;;;;49.97;22.40;;;;;;;7.83;50.98;102604.16;4424087;32;20086;-76
2022/03/19 08:43:09;;;;;;;41.37;21.10;;;;;;;8.09;50.32;102607.69;4423908;32;20093;-76
2022/03/19 08:45:36;;;;;;;42.03;20.98;;;;;;;8.50;49.43;102598.56;4409714;32;20252;-76
2022/03/19 08:48:04;;;;;;;51.37;21.92;;;;;;;8.71;48.90;102600.09;4409546;32;20156;-76
2022/03/19 08:50:31;;;;;;;44.10;21.75;;;;;;;8.77;48.52;102595.94;4423918;32;20093;-76
2022/03/19 08:52:58;;;;;;;39.22;20.23;;;;;;;8.93;48.41;102602.53;4423780;32;20231;-76
2022/03/19 08:55:25;;;;;;;41.83;21.58;;;;;;;9.04;47.88;102601.12;4423898;32;20097;-76
2022/03/19 08:57:53;;;;;;;46.28;21.60;;;;;;;9.33;47.66;102598.47;4423849;32;20173;-76
2022/03/19 09:00:20;;;;;;;41.85;20.60;;;;;;;9.47;47.62;102596.22;4423923;32;20093;-76
2022/03/19 09:02:48;;;;;;;40.17;20.35;;;;;;;9.86;46.21;102606.97;4423748;32;20156;-76
2022/03/19 09:05:16;;;;;;;41.22;19.73;;;;;;;10.48;44.62;102597.13;4423991;32;20105;-74
2022/03/19 09:07:43;;;;;;;37.30;19.90;;;;;;;10.63;44.04;102593.06;4423739;32;20500;-73
2022/03/19 09:10:10;;;;;;;36.45;19.17;;;;;;;11.13;43.85;102595.94;4423682;32;20082;-74
2022/03/19 09:12:38;;;;;;;36.20;18.40;;;;;;;11.22;42.81;102597.03;4423668;32;20151;-74
2022/03/19 09:15:10;;;;;;;31.35;16.70;;;;;;;10.89;42.70;102591.94;4423838;32;20101;-74
2022/03/19 09:17:39;;;;;;;31.60;17.37;;;;;;;10.69;43.17;102594.12;4423965;32;20092;-74
2022/03/19 09:20:07;;;;;;;32.95;17.48;;;;;;;10.92;42.41;102591.12;4423599;32;20094;-74
2022/03/19 09:22:34;;;;;;;29.25;17.08;;;;;;;10.71;41.56;102588.91;4423570;32;20097;-74
2022/03/19 09:25:02;;;;;;;34.80;18.90;;;;;;;10.70;42.50;102593.25;4409327;32;20174;-74
2022/03/19 09:27:30;;;;;;;40.75;20.17;;;;;;;10.66;41.14;102598.44;4423517;32;20178;-74
2022/03/19 09:29:58;;;;;;;26.30;16.45;;;;;;;11.08;41.97;102592.34;4409379;32;20102;-74
2022/03/19 09:32:25;;;;;;;36.85;18.50;;;;;;;11.49;42.56;102587.91;4423348;32;20140;-75
2022/03/19 09:34:53;;;;;;;32.47;17.62;;;;;;;11.70;41.11;102590.06;4423556;32;20097;-74
2022/03/19 09:37:20;;;;;;;35.53;18.25;;;;;;;11.99;40.02;102597.69;4423485;32;20093;-74
2022/03/19 09:39:52;;;;;;;31.05;18.00;;;;;;;12.16;39.34;102581.25;4423771;32;20069;-74
2022/03/19 09:42:19;;;;;;;29.12;16.12;;;;;;;12.15;39.52;102590.00;4423425;32;20089;-74
2022/03/19 09:44:47;;;;;;;31.25;16.00;;;;;;;12.46;39.30;102589.63;4423448;32;20163;-74
2022/03/19 09:47:14;;;;;;;39.70;14.75;;;;;;;12.72;36.90;102590.00;4423501;32;20101;-74
2022/03/19 09:49:41;;;;;;;26.27;14.30;;;;;;;12.98;36.44;102587.75;4409160;32;20575;-74
2022/03/19 09:52:12;;;;;;;20.62;13.82;;;;;;;12.93;36.86;102587.66;4423297;32;20124;-74
2022/03/19 09:54:40;;;;;;;26.12;14.73;;;;;;;12.96;36.95;102587.72;4423530;32;20108;-74
2022/03/19 09:57:07;;;;;;;22.85;14.45;;;;;;;12.51;35.68;102583.56;4423386;32;20466;-74
2022/03/19 09:59:36;;;;;;;23.30;14.55;;;;;;;12.42;37.07;102576.38;4423372;32;20082;-74
2022/03/19 10:02:06;;;;;;;27.42;14.38;;;;;;;12.76;37.06;102581.28;4423441;32;20442;-74
2022/03/19 10:04:38;;;;;;;27.98;14.52;;;;;;;12.52;37.19;102579.16;4423502;32;20082;-74
2022/03/19 10:09:52;;;;;;;28.48;14.93;;;;;;;11.95;38.44;102581.75;4408968;32;20813;-74
2022/03/19 10:12:23;;;;;;;30.80;14.85;;;;;;;12.20;37.19;102576.91;4423177;32;20092;-74
2022/03/19 10:14:53;;;;;;;31.80;14.10;;;;;;;12.25;36.86;102580.50;4423377;32;20101;-74
2022/03/19 10:17:37;;;;;;;21.45;14.10;;;;;;;12.80;35.88;102581.34;4423327;32;20131;-74
2022/03/19 10:20:06;;;;;;;20.73;12.85;;;;;;;12.54;35.21;102577.41;4423265;32;20476;-74
2022/03/19 10:22:34;;;;;;;25.77;14.90;;;;;;;12.67;35.82;102569.69;4423129;32;20119;-74
2022/03/19 10:25:07;;;;;;;29.00;15.68;;;;;;;12.83;35.80;102573.44;4422987;32;20422;-74
2022/03/19 10:27:38;;;;;;;23.05;14.50;;;;;;;13.46;35.69;102568.94;4408537;32;20506;-74
2022/03/19 10:30:15;;;;;;;25.10;14.27;;;;;;;14.25;35.60;102560.00;4422975;32;20066;-74
2022/03/19 10:32:46;;;;;;;33.55;14.43;;;;;;;14.54;33.91;102565.53;4423431;32;20077;-74
2022/03/19 10:35:37;;;;;;;20.35;12.55;;;;;;;14.54;33.55;102568.19;4422987;32;20127;-74
2022/03/19 10:38:20;;;;;;;24.20;13.52;;;;;;;15.25;31.79;102561.47;4423046;32;20141;-74
2022/03/19 10:40:49;;;;;;;24.33;13.57;;;;;;;15.12;30.34;102559.63;4423042;32;20082;-74
2022/03/19 10:43:18;;;;;;;26.65;14.68;;;;;;;15.45;30.82;102564.19;4422148;32;20119;-74
2022/03/19 10:45:50;;;;;;;25.35;14.30;;;;;;;15.81;30.33;102557.22;4422859;32;20169;-74
2022/03/19 10:48:23;;;;;;;22.30;14.45;;;;;;;16.12;30.16;102553.69;4422877;32;20537;-74
2022/03/19 10:50:52;;;;;;;22.25;13.25;;;;;;;16.13;29.68;102555.44;4423018;32;20103;-74
2022/03/19 10:53:21;;;;;;;24.48;13.73;;;;;;;15.85;30.06;102553.66;4422787;32;20153;-74
2022/03/19 10:55:48;;;;;;;23.80;13.82;;;;;;;16.03;30.33;102558.97;4422840;32;20166;-74
2022/03/19 10:58:16;;;;;;;25.25;13.98;;;;;;;15.64;29.93;102554.50;4422952;32;20135;-74
2022/03/19 11:01:04;;;;;;;20.75;12.98;;;;;;;15.77;29.70;102548.34;4423007;32;20422;-74
2022/03/19 11:03:37;;;;;;;23.12;14.48;;;;;;;16.19;29.20;102535.94;4422739;32;20196;-74
2022/03/19 11:06:09;;;;;;;33.67;15.82;;;;;;;16.81;27.65;102528.75;4422848;32;20260;-74
2022/03/19 11:08:41;;;;;;;23.58;14.60;;;;;;;17.36;27.50;102532.03;4422751;32;20527;-75
2022/03/19 11:11:18;;;;;;;24.08;15.38;;;;;;;17.90;26.48;102526.38;4422584;32;20180;-74
2022/03/19 11:13:49;;;;;;;20.58;13.55;;;;;;;18.59;25.95;102520.38;4422596;32;20127;-74
2022/03/19 11:16:18;;;;;;;26.00;12.93;;;;;;;18.56;24.60;102512.41;4422602;32;20128;-74
2022/03/19 11:18:47;;;;;;;24.87;12.52;;;;;;;19.15;24.33;102507.22;4408210;32;20175;-74
2022/03/19 11:21:14;;;;;;;20.75;12.30;;;;;;;19.87;22.21;102514.22;4422458;32;20077;-75
2022/03/19 11:23:50;;;;;;;20.37;12.35;;;;;;;19.17;22.38;102502.75;4422196;32;20085;-74
2022/03/19 11:26:25;;;;;;;24.03;14.30;;;;;;;19.61;21.93;102502.13;4422488;32;20117;-74
2022/03/19 11:28:54;;;;;;;20.45;13.77;;;;;;;19.73;22.64;102501.94;4422577;32;20186;-74
2022/03/19 11:31:29;;;;;;;27.08;15.50;;;;;;;19.56;22.76;102491.47;4422492;32;20085;-74
2022/03/19 11:34:01;;;;;;;20.35;14.40;;;;;;;19.91;21.62;102500.75;4422389;32;20502;-74
2022/03/19 11:36:29;;;;;;;23.02;14.80;;;;;;;21.15;21.64;102489.41;4422433;32;20098;-74
2022/03/19 11:38:57;;;;;;;23.08;15.15;;;;;;;21.21;21.24;102491.94;4422242;32;20505;-74